Portada
METAR-TAF:

METAR-TAF

Aeropuertos :

Aeropuerto Internacional de Honiara

Honiara, Guadalcanal, Islas Salomón

latitud: 09-25S, longitud: 160-03E, altitud: 8 m

Observación

El informe se hizo hace 43 minutos, a las 00:00 UTC
Viento 9 kt del noroeste
Temperatura 32°C
Humedad 67%
Presión 1004 hPa
Visibilidad 10 km o más
Escasas nubes a una altura de 2000 ft

METAR: AGGH 190000Z 32009KT 9999 FEW020 32/25 Q1004

Hora: 11:43 (00:43 UTC)

Pronóstico

El informe se hizo hace 40 minutos, a las 00:03 UTC
Pronóstico válido del 19 a las 00 UTC al 19 a las 24 UTC
Viento 15 kt del oeste-noroeste
Visibilidad: 1003 m
Nubes dispersas a una altura de 2000 ft

TAF: AGGH 190003Z 1900/1924 29015KT 9999 SCT020 T 32 34 32 29 Q 1004 1002 1001 1003

Observaciones y pronósticos meteorológicos de más de 4000 aeropuertos (mensajes METAR y TAF).

Los puntos amarillos y rojos representan las estaciones disponibles.

Ponga el ratón en el punto deseado para ver el nombre de la estación.

Haga clic para ver las observaciones y los pronósticos meteorológicos.

Para cambiar el mapa : haga clic en los botones verdes con una cruz de color negro para hacer un zoom, en el botón verde con un guión para alejar o en las flechas verdes para mapas adyacentes.


METAR-TAF: